메인 페이지
METAR-TAF:

METAR-TAF

공항 :

모빌, 앨라배마, 미국

위도: 30-36-50N, 경도: 088-03-48W, 고도: 7m

현재 날씨관측

예보는 54분 전, 06:53시(UTC)에 발표되었습니다.
무풍
온도 22°C
습도 100%
기압 1016 hPa
시정: 11.3km
맑음

METAR: KBFM 200653Z AUTO 00000KT 7SM CLR 22/22 A3001 RMK AO2 SLP163 T02220217

시각: 02:47 (07:47 UTC)

예보

예보는 2 시간 27분 전, 05:20시(UTC)에 발표되었습니다.
예보 대상 시간: 20일 06시부터 21일 06시까지 (UTC)
남남동3kt
시정: 10km
고도 1700ft 상공 구름 조금
20일 0900시부터 (UTC)
남남동5kt
시정: 8.0km
고도 3000ft 상공 구름 보통
박무
20일 1800시부터 (UTC)
남남동5kt
시정: 10km
고도 25000ft 상공 구름 보통
21일 0300시부터 (UTC)
남남서4kt
시정: 10km
맑음

TAF: KBFM 200520Z 2006/2106 15003KT P6SM FEW017 FM200900 16005KT 5SM BR SCT030 FM201800 15005KT P6SM SCT250 FM210300 21004KT P6SM SKC

4,000개 이상의 공항 관측 자료 및 예보 (METAR 및 TAF 보고).

지도상에서 검색 가능한 기상관측소가 노란 점과 빨간 점으로 표시되어 있습니다.

기상관측소 명을 보려면 표시 위로 마우스를 이동하세요.

날씨 관측과 예보를 보려면 클릭하세요.

지도 변경 : 확대하려면 엑스 표시가 있는 녹색 버튼, 축소하려면 빼기 표시가 있는 녹색 버튼, 다음 페이지의 지도를 보려면 녹색 화살표를 클릭하세요.


METAR-TAF: